LPMA/FNC METAR and TAF weather

Enter ICAO airport designator
Station Type Date Time Source
LPMA METAR 2020/01/20 19:00 UTC NOAA

LPMA 201900Z 02012G24KT 330V050 9999 SCT015 SCT030 15/06 Q1019


Station Type Date Time Source
LPMA Decoded METAR 2020/01/20 19:00 UTC NOAA

Aeroporto Da Madeira, Portugal (LPMA) 32-41-52N 016-46-28W
Jan 20, 2020 - 02:00 PM EST / 2020.01.20 1900 UTC
Wind: from the NNE (020 degrees) at 14 MPH (12 KT) gusting to 28 MPH (24 KT) (direction variable):0
Visibility: greater than 7 mile(s):0
Sky conditions: partly cloudy
Temperature: 59 F (15 C)
Dew Point: 42 F (6 C)
Relative Humidity: 54%
Pressure (altimeter): 30.09 in. Hg (1019 hPa)
ob: LPMA 201900Z 02012G24KT 330V050 9999 SCT015 SCT030 15/06 Q1019
cycle: 19

Station Type Date Time Source
LPMA TAF 2020/01/20 18:18 UTC NOAA

TAF LPMA 201700Z 2018/2118 01015KT 9999 SCT015 SCT030
TEMPO 2018/2118 02020G30KT PROB30
TEMPO 2018/2109 01025G35KT 8000 SHRA BKN015

Example: see airport list